Погода Бэлла-Виста-до-Параисона 2 недели

Парана, Бразилия

16 - 29 июля
  • 16июля
    Сегодня
    +15°
    +25°
    Ясно и безоблачно
    ВремяПогодаТемператураВлажностьДавлениеВетер, м/сВероятность осадков
    00:00Небольшая облачность+17°C88 %719 мм3.2 м/с5 %
    03:00Практически безоблачно+16°C89 %718 мм3.2 м/с5 %
    06:00Облачно с прояснениями+16°C91 %718 мм2.9 м/с5 %
    09:00Облачно с прояснениями+16°C82 %719 мм3.6 м/с5 %
    12:00Практически безоблачно+21°C67 %719 мм3.2 м/с5 %
    15:00Ясно и безоблачно+24°C56 %718 мм2.6 м/с5 %
    18:00Ясно и безоблачно+22°C78 %718 мм2.3 м/с5 %
    21:00Ясно и безоблачно+20°C83 %719 мм2.4 м/с5 %
  • 17июля
    Среда
    +15°
    +26°
    Ясно и безоблачно
    ВремяПогодаТемператураВлажностьДавлениеВетер, м/сВероятность осадков
    00:00Ясно и безоблачно+18°C85 %719 мм3.2 м/с5 %
    03:00Ясно и безоблачно+17°C90 %719 мм2.9 м/с5 %
    06:00Ясно и безоблачно+16°C93 %719 мм2.3 м/с5 %
    09:00Ясно и безоблачно+18°C82 %720 мм2.4 м/с5 %
    12:00Ясно и безоблачно+22°C63 %720 мм1.7 м/с5 %
    15:00Ясно и безоблачно+25°C53 %718 мм0.7 м/с5 %
    18:00Ясно и безоблачно+24°C62 %718 мм0.9 м/с5 %
    21:00Ясно и безоблачно+22°C71 %717 мм0.7 м/с5 %
  • 18июля
    Четверг
    +15°
    +26°
    Ясно и безоблачно
    ВремяПогодаТемператураВлажностьДавлениеВетер, м/сВероятность осадков
    00:00Ясно и безоблачно+18°C88 %717 мм1.7 м/с5 %
    03:00Ясно и безоблачно+18°C90 %716 мм2.2 м/с5 %
    06:00Ясно и безоблачно+16°C92 %716 мм1.9 м/с5 %
    09:00Ясно и безоблачно+19°C80 %718 мм2.1 м/с5 %
    12:00Ясно и безоблачно+24°C57 %718 мм2.2 м/с5 %
    15:00Ясно и безоблачно+26°C46 %717 мм1.3 м/с5 %
    18:00Ясно и безоблачно+24°C60 %717 мм1.8 м/с5 %
    21:00Ясно и безоблачно+20°C77 %717 мм2.1 м/с5 %
  • 19июля
    Пятница
    +14°
    +26°
    Ясно и безоблачно
    ВремяПогодаТемператураВлажностьДавлениеВетер, м/сВероятность осадков
    00:00Ясно и безоблачно+18°C83 %717 мм2.2 м/с5 %
    03:00Ясно и безоблачно+16°C84 %717 мм2.1 м/с5 %
    06:00Ясно и безоблачно+16°C85 %717 мм2.8 м/с5 %
    09:00Ясно и безоблачно+18°C80 %719 мм2.8 м/с5 %
    12:00Ясно и безоблачно+23°C62 %720 мм2.9 м/с5 %
    15:00Ясно и безоблачно+26°C49 %718 мм2.0 м/с5 %
    18:00Ясно и безоблачно+22°C70 %718 мм2.3 м/с5 %
    21:00Ясно и безоблачно+20°C84 %718 мм2.1 м/с5 %
  • 20июля
    Суббота
    +15°
    +26°
    Ясно и безоблачно
    ВремяПогодаТемператураВлажностьДавлениеВетер, м/сВероятность осадков
    00:00Ясно и безоблачно+18°C89 %718 мм1.8 м/с5 %
    03:00Ясно и безоблачно+17°C90 %717 мм2.0 м/с5 %
    06:00Ясно и безоблачно+15°C93 %717 мм1.7 м/с5 %
    09:00Ясно и безоблачно+19°C75 %719 мм2.3 м/с5 %
    12:00Ясно и безоблачно+23°C52 %719 мм2.2 м/с5 %
    15:00Ясно и безоблачно+26°C44 %717 мм1.4 м/с5 %
    18:00Ясно и безоблачно+24°C56 %717 мм1.7 м/с5 %
    21:00Ясно и безоблачно+19°C79 %717 мм2.4 м/с5 %
Мы используем cookies
Соглашаюсь